Flight Track Log - Related Links

Times and Time Zones

All times are in EDT time to prevent confusion due to time zone crossing. See the N34VR flight status page for this flight to view local times or setup timezone preferences in your user account.

Time Position Orientation Groundspeed Altitude Reporting Facility
EDT Latitude Longitude Course Direction KTS MPH feet Rate Location/Type
Mon 10:43:10 AM 25.0317 -77.5675 141° Southeast 255 293 7,600  Level Miami Center
Mon 10:44:10 AM 24.9650 -77.5100 142° Southeast 195 224 10,300 1,167 Climbing Miami Center
Mon 10:46:10 AM 24.8172 -77.3581 137° Southeast 332 382 11,100 1,540 Climbing Miami Center
Mon 10:47:00 AM 24.2965 -77.0223 140° Southeast  Level Estimated
Mon 10:48:00 AM 24.1903 -76.9593 141° Southeast  Level Estimated
Mon 10:48:00 AM 24.6190 -77.2390 141° Southeast  Level Estimated
Mon 10:49:10 AM 24.5711 -77.1239 141° Southeast 384 442 18,000  Level Miami Center
Mon 10:50:10 AM 24.4875 -77.0506 141° Southeast 384 442 19,700 1,800 Climbing Miami Center
Mon 10:51:10 AM 24.4000 -76.9706 140° Southeast 389 448 21,600 1,900 Climbing Miami Center
Mon 10:53:10 AM 24.2203 -76.8064 140° Southeast 414 476 25,400 1,700 Climbing Miami Center
Mon 10:55:10 AM 24.0383 -76.6403 140° Southeast 443 510 28,400 1,525 Climbing Miami Center
Mon 10:57:00 AM 23.8382 -76.5259 138° Southeast  Level Estimated
Mon 10:57:10 AM 23.8392 -76.4522 138° Southeast 467 537 31,500  Level Miami Center
Mon 10:59:10 AM 23.6358 -76.2533 138° Southeast 483 556 34,200 1,325 Climbing Miami Center
Mon 11:01:10 AM 23.4383 -76.0414 135° Southeast 489 563 36,800 1,460 Climbing Miami Center
Mon 11:03:00 AM 23.2733 -75.8724 140° Southeast  Level FlightAware Approximate
Mon 11:04:10 AM 23.1539 -75.6883 140° Southeast 510 587 41,500  Level Miami Center
Mon 11:05:10 AM 23.0508 -75.6014 142° Southeast 483 556 42,900 1,150 Climbing Miami Center
Mon 11:06:10 AM 22.9436 -75.5189 145° Southeast 477 549 43,800 800 Climbing Miami Center
Mon 11:07:10 AM 22.8364 -75.4344 144° Southeast 477 549 44,500 600 Climbing Miami Center
Mon 11:08:10 AM 22.7269 -75.3522 145° Southeast 477 549 45,000 167 Climbing Miami Center
Mon 11:10:10 AM 22.5014 -75.1772 144° Southeast 489 563 45,000  Level Miami Center
Mon 11:11:10 AM 22.4003 -75.0978 144° Southeast 500 575 45,000  Level Miami Center
Mon 11:12:10 AM 22.2842 -75.0028 143° Southeast 511 588 45,000  Level Miami Center
Mon 11:13:10 AM 22.1703 -74.9058 142° Southeast 516 594 45,000  Level Miami Center
Mon 11:14:10 AM 22.0561 -74.8089 142° Southeast 521 600 45,000  Level Miami Center
Mon 11:15:10 AM 21.9400 -74.7078 141° Southeast 521 600 45,000  Level Miami Center
Mon 11:17:10 AM 21.7136 -74.5103 141° Southeast 526 605 45,000  Level Miami Center
Mon 11:18:10 AM 21.5972 -74.4117 142° Southeast 521 600 45,000  Level Miami Center
Mon 11:19:10 AM 21.4850 -74.3136 141° Southeast 521 600 45,000  Level Miami Center
Mon 11:20:10 AM 21.3706 -74.2153 141° Southeast 521 600 45,000  Level Miami Center
Mon 11:21:10 AM 21.2542 -74.1219 143° Southeast 521 600 45,000  Level Miami Center
Mon 11:23:10 AM 21.0272 -73.9331 142° Southeast 521 600 45,000  Level Miami Center
Mon 11:25:10 AM 20.7961 -73.7494 143° Southeast 515 593 45,000  Level Miami Center
Mon 11:27:10 AM 20.5669 -73.5664 143° Southeast 515 593 45,000  Level Miami Center
Mon 11:28:10 AM 20.4525 -73.4761 144° Southeast 515 593 45,000  Level Miami Center
Mon 11:29:10 AM 20.3419 -73.3836 142° Southeast 510 587 45,000  Level Miami Center
Mon 11:30:10 AM 20.2272 -73.2939 144° Southeast 505 581 45,000  Level Miami Center
Mon 11:31:10 AM 20.1083 -73.2086 146° Southeast 510 587 45,000  Level Miami Center
Mon 11:33:00 AM 19.9153 -73.0825 152° Southeast  Level FlightAware Approximate
Mon 11:40:00 AM 19.1437 -72.6587 153° Southeast  Level FlightAware Approximate
Mon 11:41:00 AM 19.0336 -72.5981 152° Southeast  Level FlightAware Approximate
Mon 11:42:00 AM 18.9239 -72.5366 152° Southeast  Level FlightAware Approximate
Mon 11:43:00 AM 18.8143 -72.4752 152° Southeast  Level FlightAware Approximate
Mon 11:44:00 AM 18.7046 -72.4138 152° Southeast  Level FlightAware Approximate
Mon 11:45:00 AM 18.5944 -72.3534 153° Southeast  Level FlightAware Approximate
Mon 11:46:00 AM 18.4839 -72.2939 153° Southeast  Level FlightAware Approximate
Mon 11:47:00 AM 18.3764 -72.2287 148° Southeast  Level FlightAware Approximate
Mon 11:48:00 AM 18.2716 -72.1587 148° Southeast  Level FlightAware Approximate
Mon 11:49:00 AM 18.1667 -72.0889 148° Southeast  Level FlightAware Approximate
Mon 11:50:00 AM 18.0593 -72.0235 151° Southeast  Level FlightAware Approximate
Mon 11:51:00 AM 17.9508 -71.9602 151° Southeast  Level FlightAware Approximate
Mon 11:52:00 AM 17.8443 -71.8932 149° Southeast  Level FlightAware Approximate
Mon 11:53:00 AM 17.7381 -71.8256 149° Southeast  Level FlightAware Approximate
Mon 11:54:00 AM 17.6320 -71.7581 149° Southeast  Level FlightAware Approximate
Mon 11:55:00 AM 17.5286 -71.6870 150° Southeast  Level FlightAware Approximate
Mon 11:56:00 AM 17.4213 -71.6216 150° Southeast  Level FlightAware Approximate
Mon 11:57:00 AM 17.3140 -71.5562 150° Southeast  Level FlightAware Approximate
Mon 11:58:00 AM 17.2067 -71.4910 150° Southeast  Level FlightAware Approximate
Mon 11:59:00 AM 17.0998 -71.4249 149° Southeast  Level FlightAware Approximate
Mon 12:00:00 PM 16.9933 -71.3583 149° Southeast  Level FlightAware Approximate
Mon 12:01:00 PM 16.8867 -71.2918 150° Southeast  Level FlightAware Approximate
Mon 12:02:00 PM 16.7797 -71.2261 150° Southeast  Level FlightAware Approximate
Mon 12:03:00 PM 16.6726 -71.1605 150° Southeast  Level FlightAware Approximate
Mon 12:04:00 PM 16.5656 -71.0949 150° Southeast  Level FlightAware Approximate
Mon 12:05:00 PM 16.4585 -71.0295 150° Southeast  Level FlightAware Approximate
Mon 12:06:00 PM 16.3514 -70.9641 150° Southeast  Level FlightAware Approximate
Mon 12:07:00 PM 16.2443 -70.8987 150° Southeast  Level FlightAware Approximate
Mon 12:08:00 PM 16.1372 -70.8335 150° Southeast  Level FlightAware Approximate
Mon 12:09:00 PM 16.0300 -70.7683 150° Southeast  Level FlightAware Approximate
Mon 12:10:00 PM 15.9188 -70.7114 155° Southeast  Level FlightAware Approximate
Mon 12:11:00 PM 15.8058 -70.6579 155° Southeast  Level FlightAware Approximate
Mon 12:12:00 PM 15.6929 -70.6044 155° Southeast  Level FlightAware Approximate
Mon 12:13:00 PM 15.5800 -70.5509 155° Southeast  Level FlightAware Approximate
Mon 12:14:00 PM 15.4670 -70.4975 156° South  Level FlightAware Approximate
Mon 12:15:00 PM 15.3540 -70.4442 156° South  Level FlightAware Approximate
Mon 12:16:00 PM 15.2411 -70.3909 156° South  Level FlightAware Approximate
Mon 12:17:00 PM 15.1281 -70.3377 156° South  Level FlightAware Approximate
Mon 12:18:00 PM 15.0147 -70.2855 156° South  Level FlightAware Approximate
Mon 12:19:00 PM 14.9010 -70.2339 156° South  Level FlightAware Approximate
Mon 12:20:00 PM 14.7873 -70.1825 156° South  Level FlightAware Approximate
Mon 12:21:00 PM 14.6736 -70.1310 156° South  Level FlightAware Approximate
Mon 12:22:00 PM 14.5598 -70.0796 156° South  Level FlightAware Approximate
Mon 12:23:00 PM 14.4461 -70.0283 156° South  Level FlightAware Approximate
Mon 12:24:00 PM 14.3277 -69.9982 178° South  Level FlightAware Approximate
Mon 12:25:00 PM 14.2037 -69.9943 178° South  Level FlightAware Approximate
Mon 12:26:00 PM 14.0796 -69.9903 178° South  Level FlightAware Approximate
Mon 12:27:00 PM 13.9556 -69.9864 178° South  Level FlightAware Approximate
Mon 12:28:00 PM 13.8315 -69.9825 178° South  Level FlightAware Approximate
Mon 12:29:00 PM 13.7074 -69.9786 178° South  Level FlightAware Approximate
Mon 12:30:00 PM 13.5834 -69.9746 178° South  Level FlightAware Approximate
Mon 12:31:00 PM 13.4593 -69.9707 178° South  Level FlightAware Approximate
Mon 12:32:00 PM 13.3353 -69.9668 178° South  Level FlightAware Approximate
Mon 12:33:00 PM 13.2112 -69.9629 178° South  Level FlightAware Approximate
Mon 12:34:00 PM 13.0871 -69.9590 178° South  Level FlightAware Approximate
Mon 12:35:00 PM 12.9631 -69.9551 178° South  Level FlightAware Approximate
Mon 12:36:00 PM 12.8390 -69.9512 178° South  Level FlightAware Approximate
Mon 12:37:00 PM 12.7151 -69.9447 177° South  Level FlightAware Approximate
Mon 12:38:00 PM 12.5912 -69.9370 177° South  Level FlightAware Approximate
Mon 12:39:00 PM 12.4677 -69.9275 170° South  Level FlightAware Approximate
Mon 12:40:00 PM 12.3455 -69.9052 170° South  Level FlightAware Approximate
Mon 12:41:00 PM 12.2280 -69.8659 172° South  Level FlightAware Approximate
Mon 12:42:00 PM 12.1054 -69.8469 165° South  Level FlightAware Approximate
Mon 12:43:00 PM 11.9855 -69.8142 165° South  Level FlightAware Approximate
Mon 12:44:00 PM 11.8648 -69.7848 168° South  Level FlightAware Approximate
Mon 12:45:00 PM 11.7437 -69.7568 166° South  Level FlightAware Approximate
Mon 12:46:00 PM 11.6225 -69.7298 168° South  Level FlightAware Approximate
Mon 12:47:00 PM 11.5010 -69.7038 168° South  Level FlightAware Approximate
Mon 12:48:00 PM 11.3793 -69.6787 168° South  Level FlightAware Approximate
Mon 12:49:00 PM 11.2581 -69.6518 168° South  Level FlightAware Approximate
Mon 12:50:00 PM 11.1377 -69.6209 166° South  Level FlightAware Approximate
Mon 12:51:00 PM 11.0175 -69.5897 166° South  Level FlightAware Approximate
Mon 12:52:00 PM 10.8972 -69.5585 166° South  Level FlightAware Approximate
Mon 12:53:00 PM 10.7766 -69.5286 169° South  Level FlightAware Approximate
Mon 12:54:00 PM 10.6548 -69.5043 169° South  Level FlightAware Approximate
Mon 12:55:00 PM 10.5340 -69.4752 166° South  Level FlightAware Approximate
Mon 12:56:00 PM 10.4138 -69.4441 164° South  Level FlightAware Approximate
Mon 12:57:00 PM 10.2947 -69.4084 164° South  Level FlightAware Approximate
Mon 12:58:00 PM 10.1746 -69.3816 169° South  Level FlightAware Approximate
Mon 12:59:00 PM 10.0533 -69.3550 166° South  Level FlightAware Approximate
Mon 01:00:00 PM 10.0500 -69.3667 315° West  Level FlightAware Approximate
Mon 01:01:00 PM 10.0428 -69.3586 315° West  Level Estimated
Mon 01:02:00 PM 10.0428 -69.3586 315° West  Level Estimated
Mon 01:03:00 PM 10.0428 -69.3586 315° West  Level Estimated
Mon 01:04:00 PM 10.0428 -69.3586 315° West  Level Estimated
Mon 01:05:00 PM 10.0428 -69.3586 315° West  Level Estimated
Mon 01:06:00 PM 10.0428 -69.3586 315° West  Level Estimated
Mon 01:07:00 PM 10.0428 -69.3586 315° West  Level Estimated
Mon 01:08:00 PM 10.0428 -69.3586 315° West  Level Estimated
Mon 01:09:00 PM 10.0428 -69.3586 315° West  Level Estimated
Mon 01:10:00 PM 10.0428 -69.3586 315° West  Level Estimated
Mon 01:11:00 PM 10.0428 -69.3586 315° West  Level Estimated
Mon 01:12:00 PM 10.0428 -69.3586 315° West  Level Estimated
Mon 01:13:00 PM 10.0428 -69.3586 315° West  Level Estimated
Mon 01:14:00 PM 10.0428 -69.3586 315° West  Level Estimated

Login

Don't have an account? Register now (free) for customized features, flight alerts, and more!